Latest Weather Observations for West Wyalong

IDN60801

Issued at 11:05 pm EDT Thursday 30 October 2014 (issued every 30 minutes, with the page automatically refreshed every 10 minutes)

About weather observations | Map of weather stations | Latest weather observations for NSW | Other Formats
Station Details ID: 050017 Name: WEST WYALONG AIRPORT AWS Lat: -33.94 Lon: 147.20 Height: 257.0 m
Data from the previous 72 hours. | See also: Recent months for locations in New South Wales
Date/Time
EDT
Temp
°C
App
Temp
°C
Dew
Point
Rel
Hum
%
Delta-T
°C
Wind Press
QNH
hPa
Press
MSL
hPa
Rain
since 9 am
mm
Dir
 
Spd
km/h
Gust
km/h
Spd
kts
Gust
kts
30/11:00pm 16.7 14.9 3.7 42 6.1 W 2 11 1 6 1013.2 1012.7 0.0
30/10:30pm 17.1 14.1 2.3 37 6.8 WSW 7 7 4 4 1013.1 1012.6 0.0
30/10:00pm 18.4 16.8 2.7 35 7.3 CALM 0 0 0 0 1013.2 1012.7 0.0
30/09:30pm 18.6 16.9 2.0 33 7.6 CALM 0 0 0 0 1013.1 1012.6 0.0
30/09:00pm 21.1 19.5 2.4 29 8.9 CALM 0 0 0 0 1012.8 1012.4 0.0
30/08:30pm 24.0 21.1 2.8 25 10.3 SSW 7 9 4 5 1012.6 1012.2 0.0
30/08:00pm 25.7 22.8 2.4 22 11.4 S 7 11 4 6 1012.5 1012.1 0.0
30/07:30pm 27.4 23.7 2.5 20 12.4 SSW 11 15 6 8 1012.3 1011.9 0.0
30/07:00pm 29.7 25.2 2.1 17 13.8 SSW 15 22 8 12 1012.0 1011.6 0.0
30/06:30pm 30.7 25.8 2.0 16 14.4 SW 17 26 9 14 1011.9 1011.5 0.0
30/06:00pm 31.2 26.6 1.5 15 14.9 WSW 15 20 8 11 1011.8 1011.3 0.0
30/05:30pm 31.5 26.9 1.8 15 14.9 SW 15 20 8 11 1011.8 1011.3 0.0
30/05:00pm 31.6 26.3 1.8 15 15.0 SSW 19 30 10 16 1012.0 1011.6 0.0
30/04:30pm 32.0 26.9 3.1 16 14.9 SW 19 30 10 16 1012.1 1011.7 0.0
30/04:00pm 31.6 26.7 1.8 15 15.0 W 17 30 9 16 1012.3 1011.9 0.0
30/03:30pm 31.5 25.2 1.8 15 14.9 SW 24 39 13 21 1012.7 1012.3 0.0
30/03:12pm 31.1 24.8 1.4 15 14.8 W 24 28 13 15 1012.8 1012.4 0.0
30/03:07pm 31.6 22.9 1.8 15 15.0 WSW 37 46 20 25 1013.0 1012.5 0.0
30/03:00pm 31.9 27.4 2.1 15 15.1 SW 15 26 8 14 1013.1 1012.6 0.0
30/02:50pm 31.6 24.2 1.8 15 15.0 SW 30 35 16 19 1013.3 1012.8 0.0
30/02:30pm 30.7 26.6 2.0 16 14.4 SSW 13 17 7 9 1013.5 1013.0 0.0
30/02:00pm 31.1 24.4 1.4 15 14.8 WSW 26 37 14 20 1013.9 1013.4 0.0
30/01:30pm 30.5 25.2 1.9 16 14.3 SW 19 32 10 17 1014.5 1014.0 0.0
30/01:00pm 30.2 23.7 2.5 17 14.0 SW 26 33 14 18 1014.8 1014.3 0.0
30/12:30pm 29.8 23.6 2.1 17 13.9 WSW 24 35 13 19 1015.1 1014.6 0.0
30/12:00pm 29.2 23.8 2.5 18 13.4 WSW 20 35 11 19 1015.4 1015.0 0.0
30/11:30am 27.9 22.8 2.9 20 12.5 WNW 19 28 10 15 1015.7 1015.3 0.0
30/11:00am 27.1 22.9 3.6 22 11.9 WNW 15 28 8 15 1015.8 1015.4 0.0
30/10:30am 26.2 22.1 4.6 25 11.0 NNW 15 26 8 14 1016.3 1015.9 0.0
30/10:00am 24.7 21.4 4.5 27 10.2 NNW 11 17 6 9 1016.4 1016.0 0.0
30/09:30am 23.5 19.8 4.5 29 9.5 N 13 17 7 9 1016.6 1016.2 0.0
30/09:00am 21.8 18.5 4.4 32 8.6 N 11 17 6 9 1016.6 1016.2 0.0
30/08:30am 20.8 18.4 5.2 36 7.8 N 7 11 4 6 1016.5 1016.1 0.0
30/08:00am 17.1 16.1 5.7 47 5.6 CALM 0 0 0 0 1016.4 1016.0 0.0
30/07:30am 14.8 13.9 5.9 55 4.3 CALM 0 0 0 0 1015.9 1015.5 0.0
30/07:00am 11.5 10.3 4.7 63 3.1 CALM 0 0 0 0 1015.9 1015.5 0.0
30/06:30am 9.1 7.7 3.7 69 2.4 CALM 0 0 0 0 1015.5 1015.1 0.0
30/06:00am 9.0 7.5 3.2 67 2.5 WSW 0 0 0 0 1015.4 1015.0 0.0
30/05:30am 9.9 7.4 3.9 66 2.7 WSW 6 7 3 4 1015.2 1014.7 0.0
30/05:00am 9.3 7.9 3.3 66 2.6 CALM 0 0 0 0 1015.2 1014.7 0.0
30/04:30am 9.3 7.8 2.9 64 2.8 CALM 0 0 0 0 1015.2 1014.7 0.0
30/04:00am 10.0 8.6 3.3 63 2.9 CALM 0 0 0 0 1015.1 1014.6 0.0
30/03:30am 10.4 9.0 3.4 62 3.1 CALM 0 0 0 0 1015.2 1014.7 0.0
30/03:00am 10.1 8.6 3.2 62 3.0 CALM 0 0 0 0 1015.2 1014.7 0.0
30/02:30am 10.7 9.3 3.3 60 3.3 CALM 0 0 0 0 1015.3 1014.9 0.0
30/02:00am 11.0 9.6 3.3 59 3.4 CALM 0 0 0 0 1015.4 1015.0 0.0
30/01:30am 11.6 10.2 3.4 57 3.7 CALM 0 0 0 0 1015.5 1015.1 0.0
30/01:00am 12.2 10.7 3.2 54 4.0 WSW 0 0 0 0 1015.9 1015.5 0.0
30/12:30am 13.4 12.0 3.8 52 4.4 CALM 0 0 0 0 1016.4 1016.0 0.0
30/12:00am 13.9 11.4 3.9 51 4.6 WSW 6 6 3 3 1016.4 1016.0 0.0
 
Date/Time
EDT
Temp
°C
App
Temp
°C
Dew
Point
Rel
Hum
%
Delta-T
°C
Wind Press
QNH
hPa
Press
MSL
hPa
Rain
since 9 am
mm
Dir
 
Spd
km/h
Gust
km/h
Spd
kts
Gust
kts
29/11:30pm 14.1 11.5 3.3 48 4.9 WSW 6 7 3 4 1016.5 1016.1 0.0
29/11:00pm 16.3 13.6 3.7 43 5.9 SW 7 7 4 4 1016.6 1016.2 0.0
29/10:30pm 18.5 15.1 3.9 38 7.0 WSW 11 13 6 7 1016.5 1016.1 0.0
29/10:00pm 18.8 15.4 3.8 37 7.2 WSW 11 13 6 7 1016.4 1016.0 0.0
29/09:30pm 19.2 15.8 3.8 36 7.4 WSW 11 13 6 7 1016.4 1016.0 0.0
29/09:00pm 19.8 16.7 3.5 34 7.8 SW 9 11 5 6 1016.1 1015.7 0.0
29/08:30pm 20.2 17.1 3.4 33 8.1 SW 9 11 5 6 1015.8 1015.4 0.0
29/08:00pm 21.2 18.0 3.0 30 8.7 SW 9 11 5 6 1015.6 1015.2 0.0
29/07:30pm 23.7 19.8 3.6 27 9.9 SW 13 17 7 9 1015.4 1015.0 0.0
29/07:00pm 25.4 21.5 3.4 24 10.9 SW 13 19 7 10 1015.1 1014.6 0.0
29/06:30pm 26.4 21.2 3.6 23 11.5 W 20 22 11 12 1015.1 1014.6 0.0
29/06:00pm 27.0 22.5 4.1 23 11.6 SW 17 24 9 13 1015.0 1014.5 0.0
29/05:30pm 26.7 22.1 3.9 23 11.5 SW 17 26 9 14 1015.0 1014.5 0.0
29/05:00pm 27.0 22.5 4.1 23 11.6 WSW 17 28 9 15 1015.1 1014.6 0.0
29/04:30pm 27.0 21.8 3.5 22 11.8 WSW 20 28 11 15 1015.3 1014.9 0.0
29/04:00pm 26.9 21.9 3.4 22 11.8 SSW 19 30 10 16 1015.4 1015.0 0.0
29/03:30pm 26.3 21.7 3.5 23 11.4 SW 17 28 9 15 1015.7 1015.3 0.0
29/03:00pm 26.9 22.4 4.0 23 11.6 SW 17 32 9 17 1016.2 1015.8 0.0
29/02:30pm 26.3 22.3 4.7 25 11.1 SW 15 28 8 15 1016.6 1016.2 0.0
29/02:00pm 26.1 20.7 4.6 25 11.0 WSW 22 33 12 18 1016.9 1016.5 0.0
29/01:30pm 25.7 20.7 4.8 26 10.7 WSW 20 30 11 16 1017.3 1016.8 0.0
29/01:00pm 24.6 19.7 4.9 28 10.0 WSW 20 24 11 13 1017.8 1017.3 0.0
29/12:30pm 23.6 19.9 4.5 29 9.6 WSW 13 20 7 11 1018.2 1017.7 0.0
29/12:00pm 23.1 19.0 4.6 30 9.2 S 15 20 8 11 1018.6 1018.1 0.0
29/11:30am 22.2 18.9 4.7 32 8.7 WSW 11 24 6 13 1019.0 1018.6 0.0
29/11:00am 21.6 17.7 5.5 35 8.1 SSW 15 22 8 12 1019.3 1018.9 0.0
29/10:30am 20.8 17.9 6.4 39 7.3 WSW 11 20 6 11 1019.4 1019.0 0.0
29/10:00am 19.3 16.2 5.7 41 6.8 SSE 11 17 6 9 1019.6 1019.2 0.0
29/09:30am 18.7 15.4 6.2 44 6.3 SSE 13 19 7 10 1019.6 1019.2 0.0
29/09:00am 18.1 15.2 6.3 46 5.9 S 11 19 6 10 1019.6 1019.2 0.0
29/08:30am 16.9 13.6 6.4 50 5.2 SW 13 17 7 9 1019.6 1019.2 0.0
29/08:00am 15.3 12.7 6.1 54 4.5 SW 9 13 5 7 1019.4 1019.0 0.0
29/07:30am 14.4 11.0 6.0 57 4.1 SW 13 17 7 9 1018.9 1018.5 0.0
29/07:00am 12.3 9.7 6.1 66 3.0 WSW 9 13 5 7 1018.6 1018.1 0.0
29/06:30am 9.2 5.9 4.6 73 2.1 SW 11 13 6 7 1018.1 1017.6 0.0
29/06:00am 11.0 8.2 5.1 67 2.7 WSW 9 11 5 6 1018.0 1017.5 0.0
29/05:30am 10.2 7.4 5.2 71 2.3 WSW 9 11 5 6 1017.7 1017.2 0.0
29/05:00am 9.9 6.9 4.3 68 2.5 SW 9 11 5 6 1017.2 1016.7 0.0
29/04:30am 10.9 8.1 5.0 67 2.7 W 9 11 5 6 1016.9 1016.5 0.0
29/04:00am 11.0 8.1 4.9 66 2.8 W 9 11 5 6 1016.5 1016.1 0.0
29/03:30am 11.1 8.7 4.1 62 3.2 W 6 7 3 4 1016.5 1016.1 0.0
29/03:00am 12.4 9.5 4.9 60 3.5 W 9 9 5 5 1016.4 1016.0 0.0
29/02:30am 13.3 10.5 5.2 58 3.8 W 9 11 5 6 1016.4 1016.0 0.0
29/02:00am 13.6 10.8 5.0 56 4.0 W 9 13 5 7 1016.4 1016.0 0.0
29/01:30am 13.8 10.6 5.2 56 4.1 W 11 11 6 6 1016.5 1016.1 0.0
29/01:00am 12.5 9.5 4.2 57 3.8 W 9 9 5 5 1016.8 1016.4 0.0
29/12:30am 12.7 9.6 3.6 54 4.1 W 9 9 5 5 1016.8 1016.4 0.0
29/12:00am 14.1 11.2 4.9 54 4.3 W 9 11 5 6 1016.8 1016.4 0.0
 
Date/Time
EDT
Temp
°C
App
Temp
°C
Dew
Point
Rel
Hum
%
Delta-T
°C
Wind Press
QNH
hPa
Press
MSL
hPa
Rain
since 9 am
mm
Dir
 
Spd
km/h
Gust
km/h
Spd
kts
Gust
kts
28/11:30pm 13.6 10.9 3.9 52 4.5 W 7 7 4 4 1016.7 1016.3 0.0
28/11:00pm 14.7 12.1 4.1 49 4.9 W 7 9 4 5 1016.6 1016.2 0.0
28/10:30pm 15.8 12.9 4.5 47 5.4 W 9 11 5 6 1016.5 1016.1 0.0
28/10:00pm 16.7 13.8 4.4 44 5.9 W 9 11 5 6 1016.5 1016.1 0.0
28/09:30pm 18.1 14.8 4.3 40 6.6 WSW 11 15 6 8 1016.4 1016.0 0.0
28/09:00pm 19.0 14.5 4.4 38 7.1 WSW 17 20 9 11 1016.1 1015.7 0.0
28/08:30pm 19.8 15.3 4.3 36 7.5 WSW 17 20 9 11 1015.7 1015.3 0.0
28/08:00pm 20.3 15.5 4.4 35 7.8 WSW 19 24 10 13 1015.4 1015.0 0.0
28/07:30pm 20.8 15.8 4.4 34 8.1 WSW 20 28 11 15 1015.1 1014.6 0.0
28/07:00pm 21.7 14.7 4.3 32 8.6 WSW 30 43 16 23 1014.8 1014.3 0.0
28/06:30pm 22.4 15.4 4.0 30 9.1 SW 30 43 16 23 1014.5 1014.0 0.0
28/06:00pm 23.1 15.6 3.6 28 9.6 WSW 32 44 17 24 1014.5 1014.0 0.0
28/05:30pm 23.3 16.5 3.3 27 9.8 WSW 28 39 15 21 1014.2 1013.7 0.0
28/05:00pm 23.8 16.3 3.2 26 10.1 WSW 32 46 17 25 1014.3 1013.8 0.0
28/04:30pm 24.0 17.1 2.8 25 10.3 WSW 28 37 15 20 1014.3 1013.8 0.0
28/04:12pm 23.4 15.7 2.3 25 10.1 WSW 32 50 17 27 1014.3 1013.8 0.0
28/04:00pm 23.6 16.3 2.4 25 10.2 WSW 30 46 16 25 1014.4 1013.9 0.0
28/03:46pm 23.7 16.8 2.5 25 10.3 W 28 46 15 25 1014.5 1014.0 0.0
28/03:30pm 22.9 15.2 2.4 26 9.8 WSW 32 46 17 25 1014.7 1014.2 0.0
28/03:00pm 23.0 16.2 3.0 27 9.7 W 28 43 15 23 1015.0 1014.5 0.0
28/02:30pm 23.0 16.9 2.5 26 9.9 W 24 39 13 21 1015.4 1015.0 0.0
28/02:00pm 22.4 15.2 3.0 28 9.4 SW 30 41 16 22 1015.7 1015.3 0.0
28/01:30pm 21.6 14.4 2.8 29 9.0 WSW 30 41 16 22 1016.1 1015.7 0.0
28/01:00pm 20.7 14.6 3.0 31 8.4 W 24 37 13 20 1016.1 1015.7 0.0
28/12:30pm 19.7 12.9 3.0 33 7.9 W 28 37 15 20 1016.5 1016.1 0.0
28/12:00pm 19.1 13.0 2.9 34 7.6 W 24 35 13 19 1016.7 1016.3 0.0
28/11:30am 18.3 12.5 2.2 34 7.4 WSW 22 44 12 24 1017.3 1016.8 0.0
28/11:00am 17.2 10.6 2.0 36 6.9 WSW 26 35 14 19 1017.6 1017.1 0.0
28/10:30am 17.5 10.8 1.5 34 7.2 WSW 26 35 14 19 1017.6 1017.1 0.0
28/10:00am 15.8 9.1 1.2 37 6.5 SW 26 35 14 19 1017.9 1017.4 0.0
28/09:30am 15.0 8.3 1.2 39 6.1 SW 26 35 14 19 1017.8 1017.3 0.0
28/09:00am 14.2 7.2 2.1 44 5.4 SW 28 37 15 20 1017.6 1017.1 0.0
28/08:30am 13.3 5.9 1.9 46 5.0 WSW 30 37 16 20 1017.4 1016.9 0.0
28/08:00am 12.9 7.1 2.2 48 4.7 WSW 22 32 12 17 1016.7 1016.3 0.0
28/07:30am 11.9 7.0 2.1 51 4.3 WSW 17 20 9 11 1016.4 1016.0 0.0
28/07:00am 10.8 5.5 1.9 54 3.8 WSW 19 24 10 13 1015.9 1015.5 0.0
28/06:30am 10.3 5.0 1.7 55 3.7 WSW 19 22 10 12 1015.4 1015.0 0.0
28/06:00am 10.5 5.1 1.3 53 3.9 WSW 19 22 10 12 1014.9 1014.4 0.0
28/05:30am 11.1 5.7 1.4 51 4.1 WSW 19 26 10 14 1014.4 1013.9 0.0
28/05:00am 11.3 5.9 1.3 50 4.3 WSW 19 22 10 12 1014.0 1013.5 0.0
28/04:30am 11.8 6.4 1.2 48 4.5 WSW 19 24 10 13 1013.7 1013.2 0.0
28/04:00am 11.9 6.8 1.0 47 4.6 WSW 17 19 9 10 1013.6 1013.1 0.0
28/03:30am 12.3 7.2 1.0 46 4.8 WSW 17 19 9 10 1013.5 1013.0 0.0
28/03:00am 11.7 7.4 1.1 48 4.5 W 13 17 7 9 1013.4 1012.9 0.0
28/02:30am 12.5 8.2 1.2 46 4.9 W 13 17 7 9 1013.7 1013.2 0.0
28/02:00am 13.1 8.8 1.1 44 5.2 WSW 13 17 7 9 1013.9 1013.4 0.0
28/01:30am 13.9 8.9 1.2 42 5.5 WSW 17 20 9 11 1014.2 1013.7 0.0
28/01:00am 12.9 8.3 1.3 45 5.0 W 15 17 8 9 1014.1 1013.6 0.0
28/12:30am 13.1 8.8 1.1 44 5.2 W 13 15 7 8 1014.1 1013.6 0.0
28/12:00am 13.4 9.1 1.1 43 5.3 W 13 13 7 7 1014.0 1013.5 0.0
 
Date/Time
EDT
Temp
°C
App
Temp
°C
Dew
Point
Rel
Hum
%
Delta-T
°C
Wind Press
QNH
hPa
Press
MSL
hPa
Rain
since 9 am
mm
Dir
 
Spd
km/h
Gust
km/h
Spd
kts
Gust
kts
27/11:30pm 13.1 9.8 -0.2 40 5.6 WSW 7 9 4 5 1014.2 1013.7 0.0

Other Formats:

Comma delimited format used in spreadsheet applications
http://www.bom.gov.au/fwo/IDN60801/IDN60801.95709.axf

JavaScript Object Notation format (JSON) in row-major order
http://www.bom.gov.au/fwo/IDN60801/IDN60801.95709.json